sensor_id;sensor_type;location;lat;lon;timestamp;P1;durP1;ratioP1;P2;durP2;ratioP2
15398;SDS011;7797;51.428;6.756;2023-02-08T00:00:34;10.93;;;6.77;;
15398;SDS011;7797;51.428;6.756;2023-02-08T00:03:00;10.40;;;6.97;;
15398;SDS011;7797;51.428;6.756;2023-02-08T00:05:27;10.50;;;7.47;;
15398;SDS011;7797;51.428;6.756;2023-02-08T00:07:53;8.70;;;7.03;;
15398;SDS011;7797;51.428;6.756;2023-02-08T00:10:20;12.00;;;6.93;;
15398;SDS011;7797;51.428;6.756;2023-02-08T00:12:47;10.67;;;7.00;;
15398;SDS011;7797;51.428;6.756;2023-02-08T00:15:13;8.83;;;6.70;;
15398;SDS011;7797;51.428;6.756;2023-02-08T00:17:40;9.83;;;6.93;;
15398;SDS011;7797;51.428;6.756;2023-02-08T00:20:07;9.50;;;6.50;;
15398;SDS011;7797;51.428;6.756;2023-02-08T00:22:34;8.40;;;6.67;;
15398;SDS011;7797;51.428;6.756;2023-02-08T00:25:01;10.10;;;6.73;;
15398;SDS011;7797;51.428;6.756;2023-02-08T00:27:28;8.40;;;6.50;;
15398;SDS011;7797;51.428;6.756;2023-02-08T00:29:54;9.90;;;6.80;;
15398;SDS011;7797;51.428;6.756;2023-02-08T00:32:21;10.07;;;6.27;;
15398;SDS011;7797;51.428;6.756;2023-02-08T00:34:48;9.97;;;6.40;;
15398;SDS011;7797;51.428;6.756;2023-02-08T00:37:14;10.33;;;7.20;;
15398;SDS011;7797;51.428;6.756;2023-02-08T00:39:41;10.43;;;6.70;;
15398;SDS011;7797;51.428;6.756;2023-02-08T00:42:08;11.73;;;6.87;;
15398;SDS011;7797;51.428;6.756;2023-02-08T00:44:35;9.37;;;6.80;;
15398;SDS011;7797;51.428;6.756;2023-02-08T00:47:01;9.13;;;6.97;;
15398;SDS011;7797;51.428;6.756;2023-02-08T00:49:28;7.23;;;6.50;;
15398;SDS011;7797;51.428;6.756;2023-02-08T00:51:55;9.20;;;7.10;;
15398;SDS011;7797;51.428;6.756;2023-02-08T00:54:22;9.43;;;6.97;;
15398;SDS011;7797;51.428;6.756;2023-02-08T00:56:48;10.60;;;6.83;;
15398;SDS011;7797;51.428;6.756;2023-02-08T00:59:15;8.70;;;6.80;;
15398;SDS011;7797;51.428;6.756;2023-02-08T01:01:41;8.33;;;6.80;;
15398;SDS011;7797;51.428;6.756;2023-02-08T01:04:08;8.90;;;6.30;;
15398;SDS011;7797;51.428;6.756;2023-02-08T01:06:35;9.43;;;6.70;;
15398;SDS011;7797;51.428;6.756;2023-02-08T01:09:02;9.53;;;6.70;;
15398;SDS011;7797;51.428;6.756;2023-02-08T01:11:29;7.77;;;6.53;;
15398;SDS011;7797;51.428;6.756;2023-02-08T01:13:55;8.40;;;6.27;;
15398;SDS011;7797;51.428;6.756;2023-02-08T01:16:24;7.73;;;6.03;;
15398;SDS011;7797;51.428;6.756;2023-02-08T01:18:54;8.20;;;6.67;;
15398;SDS011;7797;51.428;6.756;2023-02-08T01:21:23;8.87;;;6.17;;
15398;SDS011;7797;51.428;6.756;2023-02-08T01:23:51;8.23;;;6.17;;
15398;SDS011;7797;51.428;6.756;2023-02-08T01:26:18;12.07;;;6.70;;
15398;SDS011;7797;51.428;6.756;2023-02-08T01:28:46;9.00;;;6.17;;
15398;SDS011;7797;51.428;6.756;2023-02-08T01:31:23;8.07;;;6.57;;
15398;SDS011;7797;51.428;6.756;2023-02-08T01:33:57;9.43;;;6.60;;
15398;SDS011;7797;51.428;6.756;2023-02-08T01:36:25;7.43;;;6.53;;
15398;SDS011;7797;51.428;6.756;2023-02-08T01:38:52;11.30;;;6.80;;
15398;SDS011;7797;51.428;6.756;2023-02-08T01:41:20;10.10;;;6.37;;
15398;SDS011;7797;51.428;6.756;2023-02-08T01:46:35;9.17;;;6.60;;
15398;SDS011;7797;51.428;6.756;2023-02-08T01:49:08;10.27;;;7.07;;
15398;SDS011;7797;51.428;6.756;2023-02-08T01:51:42;9.63;;;6.70;;
15398;SDS011;7797;51.428;6.756;2023-02-08T01:54:11;10.67;;;6.00;;
15398;SDS011;7797;51.428;6.756;2023-02-08T01:56:40;9.07;;;6.97;;
15398;SDS011;7797;51.428;6.756;2023-02-08T01:59:12;8.73;;;6.43;;
15398;SDS011;7797;51.428;6.756;2023-02-08T02:01:46;8.17;;;6.40;;
15398;SDS011;7797;51.428;6.756;2023-02-08T02:04:12;7.50;;;6.20;;
15398;SDS011;7797;51.428;6.756;2023-02-08T02:06:41;7.83;;;6.10;;
15398;SDS011;7797;51.428;6.756;2023-02-08T02:09:16;10.07;;;6.07;;
15398;SDS011;7797;51.428;6.756;2023-02-08T02:11:52;7.07;;;6.00;;
15398;SDS011;7797;51.428;6.756;2023-02-08T02:14:20;7.67;;;6.07;;
15398;SDS011;7797;51.428;6.756;2023-02-08T02:16:47;8.73;;;6.10;;
15398;SDS011;7797;51.428;6.756;2023-02-08T02:30:49;9.90;;;6.83;;
15398;SDS011;7797;51.428;6.756;2023-02-08T02:42:16;8.63;;;7.37;;
15398;SDS011;7797;51.428;6.756;2023-02-08T02:45:15;10.80;;;7.77;;
15398;SDS011;7797;51.428;6.756;2023-02-08T02:47:53;9.13;;;7.10;;
15398;SDS011;7797;51.428;6.756;2023-02-08T02:50:57;9.90;;;7.70;;
15398;SDS011;7797;51.428;6.756;2023-02-08T02:56:25;11.03;;;7.90;;
15398;SDS011;7797;51.428;6.756;2023-02-08T02:58:55;9.20;;;7.63;;
15398;SDS011;7797;51.428;6.756;2023-02-08T03:01:25;10.20;;;8.33;;
15398;SDS011;7797;51.428;6.756;2023-02-08T03:03:52;11.70;;;7.70;;
15398;SDS011;7797;51.428;6.756;2023-02-08T03:06:27;10.50;;;7.87;;
15398;SDS011;7797;51.428;6.756;2023-02-08T03:09:11;10.53;;;8.10;;
15398;SDS011;7797;51.428;6.756;2023-02-08T03:12:03;9.80;;;7.93;;
15398;SDS011;7797;51.428;6.756;2023-02-08T03:14:48;10.50;;;7.23;;
15398;SDS011;7797;51.428;6.756;2023-02-08T03:22:59;8.70;;;7.17;;
15398;SDS011;7797;51.428;6.756;2023-02-08T03:25:46;11.50;;;8.37;;
15398;SDS011;7797;51.428;6.756;2023-02-08T03:28:23;10.80;;;7.83;;
15398;SDS011;7797;51.428;6.756;2023-02-08T03:36:20;11.70;;;8.20;;
15398;SDS011;7797;51.428;6.756;2023-02-08T03:38:52;11.70;;;8.53;;
15398;SDS011;7797;51.428;6.756;2023-02-08T03:41:22;13.40;;;9.33;;
15398;SDS011;7797;51.428;6.756;2023-02-08T03:44:02;11.20;;;8.73;;
15398;SDS011;7797;51.428;6.756;2023-02-08T03:46:33;12.40;;;9.03;;
15398;SDS011;7797;51.428;6.756;2023-02-08T03:49:04;11.87;;;8.97;;
15398;SDS011;7797;51.428;6.756;2023-02-08T03:51:34;14.67;;;10.30;;
15398;SDS011;7797;51.428;6.756;2023-02-08T03:54:03;12.73;;;9.50;;
15398;SDS011;7797;51.428;6.756;2023-02-08T03:56:45;14.60;;;9.70;;
15398;SDS011;7797;51.428;6.756;2023-02-08T03:59:16;10.67;;;9.23;;
15398;SDS011;7797;51.428;6.756;2023-02-08T04:02:05;14.23;;;9.70;;
15398;SDS011;7797;51.428;6.756;2023-02-08T04:04:34;13.00;;;9.53;;
15398;SDS011;7797;51.428;6.756;2023-02-08T04:07:03;13.03;;;9.73;;
15398;SDS011;7797;51.428;6.756;2023-02-08T04:09:30;13.47;;;9.67;;
15398;SDS011;7797;51.428;6.756;2023-02-08T04:11:57;11.93;;;9.23;;
15398;SDS011;7797;51.428;6.756;2023-02-08T04:14:24;14.93;;;10.30;;
15398;SDS011;7797;51.428;6.756;2023-02-08T04:16:50;14.03;;;9.17;;
15398;SDS011;7797;51.428;6.756;2023-02-08T04:19:17;13.23;;;9.60;;
15398;SDS011;7797;51.428;6.756;2023-02-08T04:21:44;13.90;;;9.63;;
15398;SDS011;7797;51.428;6.756;2023-02-08T04:24:11;11.30;;;9.10;;
15398;SDS011;7797;51.428;6.756;2023-02-08T04:26:37;14.30;;;9.13;;
15398;SDS011;7797;51.428;6.756;2023-02-08T04:29:04;13.43;;;9.23;;
15398;SDS011;7797;51.428;6.756;2023-02-08T04:31:31;12.27;;;9.20;;
15398;SDS011;7797;51.428;6.756;2023-02-08T04:33:58;9.73;;;8.70;;
15398;SDS011;7797;51.428;6.756;2023-02-08T04:36:24;13.87;;;9.27;;
15398;SDS011;7797;51.428;6.756;2023-02-08T04:38:51;11.67;;;9.00;;
15398;SDS011;7797;51.428;6.756;2023-02-08T04:41:18;13.27;;;9.87;;
15398;SDS011;7797;51.428;6.756;2023-02-08T04:43:44;13.13;;;9.10;;
15398;SDS011;7797;51.428;6.756;2023-02-08T04:46:11;12.23;;;9.37;;
15398;SDS011;7797;51.428;6.756;2023-02-08T04:48:38;12.83;;;8.63;;
15398;SDS011;7797;51.428;6.756;2023-02-08T04:51:05;12.13;;;8.67;;
15398;SDS011;7797;51.428;6.756;2023-02-08T04:53:31;11.20;;;8.70;;
15398;SDS011;7797;51.428;6.756;2023-02-08T04:55:58;13.10;;;9.03;;
15398;SDS011;7797;51.428;6.756;2023-02-08T04:58:25;12.50;;;8.97;;
15398;SDS011;7797;51.428;6.756;2023-02-08T05:00:51;13.50;;;8.63;;
15398;SDS011;7797;51.428;6.756;2023-02-08T05:03:18;10.83;;;8.37;;
15398;SDS011;7797;51.428;6.756;2023-02-08T05:05:45;11.40;;;8.17;;
15398;SDS011;7797;51.428;6.756;2023-02-08T05:08:11;11.73;;;8.70;;
15398;SDS011;7797;51.428;6.756;2023-02-08T05:10:42;10.90;;;7.93;;
15398;SDS011;7797;51.428;6.756;2023-02-08T05:13:10;12.87;;;9.80;;
15398;SDS011;7797;51.428;6.756;2023-02-08T05:15:36;11.23;;;8.20;;
15398;SDS011;7797;51.428;6.756;2023-02-08T05:18:03;10.43;;;8.07;;
15398;SDS011;7797;51.428;6.756;2023-02-08T05:20:30;12.17;;;8.70;;
15398;SDS011;7797;51.428;6.756;2023-02-08T05:22:59;11.70;;;8.33;;
15398;SDS011;7797;51.428;6.756;2023-02-08T05:25:25;11.47;;;8.83;;
15398;SDS011;7797;51.428;6.756;2023-02-08T05:27:52;12.33;;;8.90;;
15398;SDS011;7797;51.428;6.756;2023-02-08T05:30:19;10.73;;;8.40;;
15398;SDS011;7797;51.428;6.756;2023-02-08T05:32:46;15.37;;;9.07;;
15398;SDS011;7797;51.428;6.756;2023-02-08T05:35:12;12.07;;;8.87;;
15398;SDS011;7797;51.428;6.756;2023-02-08T05:37:39;11.57;;;8.60;;
15398;SDS011;7797;51.428;6.756;2023-02-08T05:40:06;14.53;;;9.17;;
15398;SDS011;7797;51.428;6.756;2023-02-08T05:42:33;12.80;;;8.50;;
15398;SDS011;7797;51.428;6.756;2023-02-08T05:44:59;11.33;;;8.20;;
15398;SDS011;7797;51.428;6.756;2023-02-08T05:47:26;14.40;;;8.60;;
15398;SDS011;7797;51.428;6.756;2023-02-08T05:49:53;10.50;;;8.17;;
15398;SDS011;7797;51.428;6.756;2023-02-08T05:52:19;12.23;;;8.27;;
15398;SDS011;7797;51.428;6.756;2023-02-08T05:54:46;11.63;;;8.17;;
15398;SDS011;7797;51.428;6.756;2023-02-08T05:57:13;12.60;;;8.93;;
15398;SDS011;7797;51.428;6.756;2023-02-08T05:59:39;12.27;;;9.03;;
15398;SDS011;7797;51.428;6.756;2023-02-08T06:02:06;14.00;;;9.43;;
15398;SDS011;7797;51.428;6.756;2023-02-08T06:04:33;11.77;;;9.33;;
15398;SDS011;7797;51.428;6.756;2023-02-08T06:07:04;14.07;;;9.53;;
15398;SDS011;7797;51.428;6.756;2023-02-08T06:09:30;13.57;;;9.47;;
15398;SDS011;7797;51.428;6.756;2023-02-08T06:11:57;17.23;;;10.43;;
15398;SDS011;7797;51.428;6.756;2023-02-08T06:14:24;15.67;;;10.07;;
15398;SDS011;7797;51.428;6.756;2023-02-08T06:16:50;16.97;;;9.67;;
15398;SDS011;7797;51.428;6.756;2023-02-08T06:19:17;13.50;;;8.97;;
15398;SDS011;7797;51.428;6.756;2023-02-08T06:21:44;13.83;;;10.03;;
15398;SDS011;7797;51.428;6.756;2023-02-08T06:24:11;13.87;;;10.00;;
15398;SDS011;7797;51.428;6.756;2023-02-08T06:26:38;17.03;;;9.83;;
15398;SDS011;7797;51.428;6.756;2023-02-08T06:29:05;13.17;;;9.73;;
15398;SDS011;7797;51.428;6.756;2023-02-08T06:31:32;13.77;;;9.37;;
15398;SDS011;7797;51.428;6.756;2023-02-08T06:34:03;12.87;;;9.77;;
15398;SDS011;7797;51.428;6.756;2023-02-08T06:36:30;15.00;;;9.67;;
15398;SDS011;7797;51.428;6.756;2023-02-08T06:38:57;15.60;;;9.90;;
15398;SDS011;7797;51.428;6.756;2023-02-08T06:41:24;14.17;;;9.53;;
15398;SDS011;7797;51.428;6.756;2023-02-08T06:43:50;13.53;;;9.90;;
15398;SDS011;7797;51.428;6.756;2023-02-08T06:46:17;14.13;;;9.90;;
15398;SDS011;7797;51.428;6.756;2023-02-08T06:48:44;14.00;;;10.17;;
15398;SDS011;7797;51.428;6.756;2023-02-08T06:51:10;15.47;;;10.63;;
15398;SDS011;7797;51.428;6.756;2023-02-08T06:53:37;15.23;;;10.67;;
15398;SDS011;7797;51.428;6.756;2023-02-08T06:56:03;16.90;;;11.43;;
15398;SDS011;7797;51.428;6.756;2023-02-08T06:58:30;15.20;;;11.13;;
15398;SDS011;7797;51.428;6.756;2023-02-08T07:00:57;14.53;;;10.10;;
15398;SDS011;7797;51.428;6.756;2023-02-08T07:03:24;15.90;;;11.33;;
15398;SDS011;7797;51.428;6.756;2023-02-08T07:05:50;16.47;;;10.77;;
15398;SDS011;7797;51.428;6.756;2023-02-08T07:08:29;16.90;;;11.17;;
15398;SDS011;7797;51.428;6.756;2023-02-08T07:10:56;14.33;;;10.93;;
15398;SDS011;7797;51.428;6.756;2023-02-08T07:13:23;16.80;;;11.80;;
15398;SDS011;7797;51.428;6.756;2023-02-08T07:15:50;13.70;;;10.97;;
15398;SDS011;7797;51.428;6.756;2023-02-08T07:18:17;13.73;;;10.90;;
15398;SDS011;7797;51.428;6.756;2023-02-08T07:20:43;15.10;;;11.57;;
15398;SDS011;7797;51.428;6.756;2023-02-08T07:23:10;14.20;;;10.77;;
15398;SDS011;7797;51.428;6.756;2023-02-08T07:25:37;13.27;;;11.90;;
15398;SDS011;7797;51.428;6.756;2023-02-08T07:28:03;15.53;;;11.37;;
15398;SDS011;7797;51.428;6.756;2023-02-08T07:30:30;14.07;;;11.03;;
15398;SDS011;7797;51.428;6.756;2023-02-08T07:32:57;14.37;;;11.63;;
15398;SDS011;7797;51.428;6.756;2023-02-08T07:35:24;16.67;;;11.47;;
15398;SDS011;7797;51.428;6.756;2023-02-08T07:37:50;16.53;;;11.73;;
15398;SDS011;7797;51.428;6.756;2023-02-08T07:40:17;14.67;;;10.53;;
15398;SDS011;7797;51.428;6.756;2023-02-08T07:42:44;19.93;;;11.73;;
15398;SDS011;7797;51.428;6.756;2023-02-08T07:45:11;15.67;;;12.07;;
15398;SDS011;7797;51.428;6.756;2023-02-08T07:47:37;13.67;;;11.20;;
15398;SDS011;7797;51.428;6.756;2023-02-08T07:50:04;16.13;;;12.63;;
15398;SDS011;7797;51.428;6.756;2023-02-08T07:52:37;14.47;;;10.83;;
15398;SDS011;7797;51.428;6.756;2023-02-08T07:55:04;14.80;;;11.27;;
15398;SDS011;7797;51.428;6.756;2023-02-08T07:57:31;17.83;;;11.27;;
15398;SDS011;7797;51.428;6.756;2023-02-08T07:59:57;17.93;;;11.27;;
15398;SDS011;7797;51.428;6.756;2023-02-08T08:02:24;14.67;;;10.30;;
15398;SDS011;7797;51.428;6.756;2023-02-08T08:04:51;16.97;;;10.83;;
15398;SDS011;7797;51.428;6.756;2023-02-08T08:07:19;17.10;;;12.57;;
15398;SDS011;7797;51.428;6.756;2023-02-08T08:09:46;16.30;;;11.43;;
15398;SDS011;7797;51.428;6.756;2023-02-08T08:12:13;13.60;;;10.63;;
15398;SDS011;7797;51.428;6.756;2023-02-08T08:14:40;15.03;;;10.70;;
15398;SDS011;7797;51.428;6.756;2023-02-08T08:17:06;13.43;;;9.93;;
15398;SDS011;7797;51.428;6.756;2023-02-08T08:19:36;11.83;;;9.40;;
15398;SDS011;7797;51.428;6.756;2023-02-08T08:22:02;13.30;;;9.07;;
15398;SDS011;7797;51.428;6.756;2023-02-08T08:24:29;13.40;;;8.67;;
15398;SDS011;7797;51.428;6.756;2023-02-08T08:27:01;13.17;;;9.07;;
15398;SDS011;7797;51.428;6.756;2023-02-08T08:29:30;13.10;;;9.90;;
15398;SDS011;7797;51.428;6.756;2023-02-08T08:31:57;15.00;;;10.20;;
15398;SDS011;7797;51.428;6.756;2023-02-08T08:34:24;11.67;;;8.93;;
15398;SDS011;7797;51.428;6.756;2023-02-08T08:36:57;15.00;;;9.63;;
15398;SDS011;7797;51.428;6.756;2023-02-08T08:39:25;15.67;;;8.30;;
15398;SDS011;7797;51.428;6.756;2023-02-08T08:41:58;23.83;;;8.50;;
15398;SDS011;7797;51.428;6.756;2023-02-08T08:44:25;14.03;;;8.20;;
15398;SDS011;7797;51.428;6.756;2023-02-08T08:46:55;10.77;;;7.13;;
15398;SDS011;7797;51.428;6.756;2023-02-08T08:49:23;16.53;;;7.17;;
15398;SDS011;7797;51.428;6.756;2023-02-08T08:51:50;8.50;;;6.47;;
15398;SDS011;7797;51.428;6.756;2023-02-08T08:54:17;13.97;;;6.23;;
15398;SDS011;7797;51.428;6.756;2023-02-08T08:56:44;14.97;;;6.33;;
15398;SDS011;7797;51.428;6.756;2023-02-08T08:59:10;8.80;;;5.70;;
15398;SDS011;7797;51.428;6.756;2023-02-08T09:01:37;12.13;;;5.50;;
15398;SDS011;7797;51.428;6.756;2023-02-08T09:04:05;9.13;;;5.60;;
15398;SDS011;7797;51.428;6.756;2023-02-08T09:06:32;8.53;;;6.20;;
15398;SDS011;7797;51.428;6.756;2023-02-08T09:08:58;8.17;;;5.30;;
15398;SDS011;7797;51.428;6.756;2023-02-08T09:11:25;7.67;;;5.00;;
15398;SDS011;7797;51.428;6.756;2023-02-08T09:13:52;7.00;;;4.80;;
15398;SDS011;7797;51.428;6.756;2023-02-08T09:16:22;9.40;;;4.90;;
15398;SDS011;7797;51.428;6.756;2023-02-08T09:18:49;7.33;;;5.37;;
15398;SDS011;7797;51.428;6.756;2023-02-08T09:21:17;10.80;;;4.93;;
15398;SDS011;7797;51.428;6.756;2023-02-08T09:23:46;7.53;;;5.10;;
15398;SDS011;7797;51.428;6.756;2023-02-08T09:26:14;8.20;;;4.80;;
15398;SDS011;7797;51.428;6.756;2023-02-08T09:28:43;7.50;;;5.00;;
15398;SDS011;7797;51.428;6.756;2023-02-08T09:31:11;12.43;;;4.87;;
15398;SDS011;7797;51.428;6.756;2023-02-08T09:33:44;9.23;;;5.30;;
15398;SDS011;7797;51.428;6.756;2023-02-08T09:36:11;5.13;;;4.63;;
15398;SDS011;7797;51.428;6.756;2023-02-08T09:38:44;6.53;;;4.33;;
15398;SDS011;7797;51.428;6.756;2023-02-08T09:41:31;5.67;;;4.77;;
15398;SDS011;7797;51.428;6.756;2023-02-08T09:47:05;11.40;;;4.83;;
15398;SDS011;7797;51.428;6.756;2023-02-08T09:49:37;8.33;;;5.03;;
15398;SDS011;7797;51.428;6.756;2023-02-08T09:52:08;8.07;;;5.23;;
15398;SDS011;7797;51.428;6.756;2023-02-08T09:55:13;11.80;;;4.63;;
15398;SDS011;7797;51.428;6.756;2023-02-08T09:57:51;8.10;;;4.63;;
15398;SDS011;7797;51.428;6.756;2023-02-08T10:00:38;6.03;;;4.73;;
15398;SDS011;7797;51.428;6.756;2023-02-08T10:03:20;8.47;;;4.87;;
15398;SDS011;7797;51.428;6.756;2023-02-08T10:05:49;14.67;;;4.50;;
15398;SDS011;7797;51.428;6.756;2023-02-08T10:08:16;6.80;;;4.30;;
15398;SDS011;7797;51.428;6.756;2023-02-08T10:10:53;5.07;;;4.20;;
15398;SDS011;7797;51.428;6.756;2023-02-08T10:16:41;7.93;;;4.37;;
15398;SDS011;7797;51.428;6.756;2023-02-08T10:32:54;6.07;;;4.10;;
15398;SDS011;7797;51.428;6.756;2023-02-08T10:35:27;7.83;;;4.63;;
15398;SDS011;7797;51.428;6.756;2023-02-08T10:37:54;8.27;;;4.50;;
15398;SDS011;7797;51.428;6.756;2023-02-08T10:40:31;6.17;;;4.47;;
15398;SDS011;7797;51.428;6.756;2023-02-08T10:51:21;5.70;;;4.27;;
15398;SDS011;7797;51.428;6.756;2023-02-08T10:53:48;5.30;;;4.00;;
15398;SDS011;7797;51.428;6.756;2023-02-08T10:59:20;4.63;;;4.17;;
15398;SDS011;7797;51.428;6.756;2023-02-08T11:01:49;5.47;;;4.00;;
15398;SDS011;7797;51.428;6.756;2023-02-08T11:04:17;5.17;;;3.77;;
15398;SDS011;7797;51.428;6.756;2023-02-08T11:06:45;5.63;;;4.00;;
15398;SDS011;7797;51.428;6.756;2023-02-08T11:11:48;6.70;;;4.10;;
15398;SDS011;7797;51.428;6.756;2023-02-08T11:14:19;7.13;;;3.67;;
15398;SDS011;7797;51.428;6.756;2023-02-08T11:16:53;3.90;;;3.50;;
15398;SDS011;7797;51.428;6.756;2023-02-08T11:22:01;4.90;;;3.70;;
15398;SDS011;7797;51.428;6.756;2023-02-08T11:24:32;8.17;;;3.80;;
15398;SDS011;7797;51.428;6.756;2023-02-08T11:27:14;6.20;;;3.97;;
15398;SDS011;7797;51.428;6.756;2023-02-08T11:29:42;4.43;;;3.73;;
15398;SDS011;7797;51.428;6.756;2023-02-08T11:32:16;4.97;;;3.37;;
15398;SDS011;7797;51.428;6.756;2023-02-08T11:34:44;4.40;;;3.40;;
15398;SDS011;7797;51.428;6.756;2023-02-08T11:37:20;3.07;;;2.77;;
15398;SDS011;7797;51.428;6.756;2023-02-08T11:42:23;3.50;;;3.20;;
15398;SDS011;7797;51.428;6.756;2023-02-08T11:45:05;5.70;;;3.30;;
15398;SDS011;7797;51.428;6.756;2023-02-08T11:47:34;3.20;;;2.90;;
15398;SDS011;7797;51.428;6.756;2023-02-08T11:50:03;4.23;;;3.30;;
15398;SDS011;7797;51.428;6.756;2023-02-08T11:52:36;3.40;;;3.00;;
15398;SDS011;7797;51.428;6.756;2023-02-08T11:55:21;4.03;;;2.97;;
15398;SDS011;7797;51.428;6.756;2023-02-08T12:00:38;3.60;;;3.07;;
15398;SDS011;7797;51.428;6.756;2023-02-08T12:08:38;3.00;;;2.70;;
15398;SDS011;7797;51.428;6.756;2023-02-08T12:16:59;3.77;;;3.20;;
15398;SDS011;7797;51.428;6.756;2023-02-08T12:22:42;3.67;;;2.57;;
15398;SDS011;7797;51.428;6.756;2023-02-08T12:27:57;4.50;;;3.30;;
15398;SDS011;7797;51.428;6.756;2023-02-08T12:30:33;3.40;;;3.10;;
15398;SDS011;7797;51.428;6.756;2023-02-08T12:33:37;3.67;;;2.80;;
15398;SDS011;7797;51.428;6.756;2023-02-08T12:56:04;2.93;;;2.73;;
15398;SDS011;7797;51.428;6.756;2023-02-08T12:58:41;3.03;;;2.77;;
15398;SDS011;7797;51.428;6.756;2023-02-08T13:01:14;3.50;;;3.17;;
15398;SDS011;7797;51.428;6.756;2023-02-08T13:06:23;3.87;;;3.00;;
15398;SDS011;7797;51.428;6.756;2023-02-08T13:08:54;3.90;;;3.17;;
15398;SDS011;7797;51.428;6.756;2023-02-08T13:14:27;3.60;;;2.73;;
15398;SDS011;7797;51.428;6.756;2023-02-08T13:17:00;3.27;;;2.97;;
15398;SDS011;7797;51.428;6.756;2023-02-08T13:19:53;2.80;;;2.60;;
15398;SDS011;7797;51.428;6.756;2023-02-08T13:22:26;3.07;;;2.87;;
15398;SDS011;7797;51.428;6.756;2023-02-08T13:24:55;3.10;;;2.63;;
15398;SDS011;7797;51.428;6.756;2023-02-08T13:27:32;3.20;;;2.90;;
15398;SDS011;7797;51.428;6.756;2023-02-08T13:29:59;3.30;;;3.00;;
15398;SDS011;7797;51.428;6.756;2023-02-08T13:32:30;2.67;;;2.47;;
15398;SDS011;7797;51.428;6.756;2023-02-08T13:35:18;3.00;;;2.77;;
15398;SDS011;7797;51.428;6.756;2023-02-08T13:37:51;3.63;;;2.70;;
15398;SDS011;7797;51.428;6.756;2023-02-08T13:40:25;4.90;;;3.20;;
15398;SDS011;7797;51.428;6.756;2023-02-08T13:43:00;3.20;;;2.90;;
15398;SDS011;7797;51.428;6.756;2023-02-08T13:45:29;3.10;;;2.80;;
15398;SDS011;7797;51.428;6.756;2023-02-08T13:48:05;5.20;;;3.00;;
15398;SDS011;7797;51.428;6.756;2023-02-08T13:53:00;3.53;;;2.57;;
15398;SDS011;7797;51.428;6.756;2023-02-08T14:01:00;6.90;;;3.30;;
15398;SDS011;7797;51.428;6.756;2023-02-08T14:03:33;4.03;;;2.90;;
15398;SDS011;7797;51.428;6.756;2023-02-08T14:13:59;6.73;;;3.00;;
15398;SDS011;7797;51.428;6.756;2023-02-08T14:17:15;4.33;;;3.20;;
15398;SDS011;7797;51.428;6.756;2023-02-08T14:19:44;3.87;;;2.67;;
15398;SDS011;7797;51.428;6.756;2023-02-08T14:22:14;2.70;;;2.47;;
15398;SDS011;7797;51.428;6.756;2023-02-08T14:24:46;3.57;;;3.17;;
15398;SDS011;7797;51.428;6.756;2023-02-08T14:27:25;2.83;;;2.63;;
15398;SDS011;7797;51.428;6.756;2023-02-08T14:29:54;3.37;;;2.40;;
15398;SDS011;7797;51.428;6.756;2023-02-08T14:32:23;2.60;;;2.40;;
15398;SDS011;7797;51.428;6.756;2023-02-08T14:34:57;3.10;;;2.47;;
15398;SDS011;7797;51.428;6.756;2023-02-08T14:37:30;3.37;;;2.73;;
15398;SDS011;7797;51.428;6.756;2023-02-08T14:42:54;2.83;;;2.63;;
15398;SDS011;7797;51.428;6.756;2023-02-08T14:45:27;3.90;;;3.10;;
15398;SDS011;7797;51.428;6.756;2023-02-08T14:47:59;5.03;;;2.57;;
15398;SDS011;7797;51.428;6.756;2023-02-08T14:50:34;2.83;;;2.40;;
15398;SDS011;7797;51.428;6.756;2023-02-08T14:53:05;2.80;;;2.60;;
15398;SDS011;7797;51.428;6.756;2023-02-08T14:55:49;2.97;;;2.47;;
15398;SDS011;7797;51.428;6.756;2023-02-08T14:58:23;2.80;;;2.60;;
15398;SDS011;7797;51.428;6.756;2023-02-08T15:00:56;6.73;;;2.70;;
15398;SDS011;7797;51.428;6.756;2023-02-08T15:03:27;6.27;;;2.97;;
15398;SDS011;7797;51.428;6.756;2023-02-08T15:06:01;3.50;;;2.50;;
15398;SDS011;7797;51.428;6.756;2023-02-08T15:08:29;3.43;;;2.60;;
15398;SDS011;7797;51.428;6.756;2023-02-08T15:10:55;2.90;;;2.60;;
15398;SDS011;7797;51.428;6.756;2023-02-08T15:13:23;2.77;;;2.57;;
15398;SDS011;7797;51.428;6.756;2023-02-08T15:15:53;3.37;;;3.07;;
15398;SDS011;7797;51.428;6.756;2023-02-08T15:18:22;3.27;;;2.97;;
15398;SDS011;7797;51.428;6.756;2023-02-08T15:21:04;3.00;;;2.70;;
15398;SDS011;7797;51.428;6.756;2023-02-08T15:23:32;3.10;;;2.30;;
15398;SDS011;7797;51.428;6.756;2023-02-08T15:26:00;4.43;;;2.83;;
15398;SDS011;7797;51.428;6.756;2023-02-08T15:28:29;3.17;;;2.90;;
15398;SDS011;7797;51.428;6.756;2023-02-08T15:30:58;2.93;;;2.70;;
15398;SDS011;7797;51.428;6.756;2023-02-08T15:33:26;2.73;;;2.53;;
15398;SDS011;7797;51.428;6.756;2023-02-08T15:38:29;2.77;;;2.47;;
15398;SDS011;7797;51.428;6.756;2023-02-08T15:43:27;3.63;;;2.60;;
15398;SDS011;7797;51.428;6.756;2023-02-08T15:46:06;4.60;;;2.40;;
15398;SDS011;7797;51.428;6.756;2023-02-08T15:48:44;3.00;;;2.80;;
15398;SDS011;7797;51.428;6.756;2023-02-08T15:51:11;2.70;;;2.50;;
15398;SDS011;7797;51.428;6.756;2023-02-08T15:53:40;3.50;;;2.60;;
15398;SDS011;7797;51.428;6.756;2023-02-08T15:56:09;3.10;;;2.80;;
15398;SDS011;7797;51.428;6.756;2023-02-08T15:58:59;2.80;;;2.60;;
15398;SDS011;7797;51.428;6.756;2023-02-08T16:01:27;2.93;;;2.70;;
15398;SDS011;7797;51.428;6.756;2023-02-08T16:03:56;5.07;;;3.40;;
15398;SDS011;7797;51.428;6.756;2023-02-08T16:06:28;2.93;;;2.70;;
15398;SDS011;7797;51.428;6.756;2023-02-08T16:08:56;3.37;;;3.07;;
15398;SDS011;7797;51.428;6.756;2023-02-08T16:11:26;3.30;;;2.80;;
15398;SDS011;7797;51.428;6.756;2023-02-08T16:13:56;2.90;;;2.70;;
15398;SDS011;7797;51.428;6.756;2023-02-08T16:19:05;4.17;;;3.37;;
15398;SDS011;7797;51.428;6.756;2023-02-08T16:21:52;8.73;;;4.03;;
15398;SDS011;7797;51.428;6.756;2023-02-08T16:24:26;6.40;;;3.37;;
15398;SDS011;7797;51.428;6.756;2023-02-08T16:29:33;4.83;;;3.17;;
15398;SDS011;7797;51.428;6.756;2023-02-08T16:32:16;6.77;;;3.50;;
15398;SDS011;7797;51.428;6.756;2023-02-08T16:34:49;4.17;;;3.40;;
15398;SDS011;7797;51.428;6.756;2023-02-08T16:42:34;8.10;;;3.90;;
15398;SDS011;7797;51.428;6.756;2023-02-08T16:47:51;6.03;;;3.97;;
15398;SDS011;7797;51.428;6.756;2023-02-08T16:50:22;6.27;;;3.80;;
15398;SDS011;7797;51.428;6.756;2023-02-08T16:52:51;6.97;;;3.90;;
15398;SDS011;7797;51.428;6.756;2023-02-08T16:55:24;8.10;;;4.40;;
15398;SDS011;7797;51.428;6.756;2023-02-08T16:57:52;6.67;;;4.30;;
15398;SDS011;7797;51.428;6.756;2023-02-08T17:00:23;9.37;;;4.40;;
15398;SDS011;7797;51.428;6.756;2023-02-08T17:02:57;6.17;;;4.03;;
15398;SDS011;7797;51.428;6.756;2023-02-08T17:05:27;5.73;;;3.80;;
15398;SDS011;7797;51.428;6.756;2023-02-08T17:07:55;6.03;;;4.10;;
15398;SDS011;7797;51.428;6.756;2023-02-08T17:10:26;7.57;;;4.20;;
15398;SDS011;7797;51.428;6.756;2023-02-08T17:12:57;5.83;;;3.87;;
15398;SDS011;7797;51.428;6.756;2023-02-08T17:15:44;8.00;;;4.70;;
15398;SDS011;7797;51.428;6.756;2023-02-08T17:18:12;8.33;;;4.43;;
15398;SDS011;7797;51.428;6.756;2023-02-08T17:20:39;7.10;;;4.40;;
15398;SDS011;7797;51.428;6.756;2023-02-08T17:23:06;4.97;;;4.33;;
15398;SDS011;7797;51.428;6.756;2023-02-08T17:25:33;9.37;;;4.30;;
15398;SDS011;7797;51.428;6.756;2023-02-08T17:28:01;6.80;;;4.60;;
15398;SDS011;7797;51.428;6.756;2023-02-08T17:30:35;6.47;;;4.73;;
15398;SDS011;7797;51.428;6.756;2023-02-08T17:33:04;6.70;;;4.20;;
15398;SDS011;7797;51.428;6.756;2023-02-08T17:35:36;7.47;;;4.60;;
15398;SDS011;7797;51.428;6.756;2023-02-08T17:38:04;7.70;;;5.13;;
15398;SDS011;7797;51.428;6.756;2023-02-08T17:40:31;8.20;;;5.10;;
15398;SDS011;7797;51.428;6.756;2023-02-08T17:43:00;7.77;;;5.03;;
15398;SDS011;7797;51.428;6.756;2023-02-08T17:45:27;10.33;;;5.33;;
15398;SDS011;7797;51.428;6.756;2023-02-08T17:47:55;11.77;;;5.70;;
15398;SDS011;7797;51.428;6.756;2023-02-08T17:50:25;6.97;;;4.80;;